Time;durP1;ratioP1;P1;durP2;ratioP2;P2;SDS_P1;SDS_P2;PMS_P1;PMS_P2;Temp;Humidity;BMP_temperature;BMP_pressure;BME280_temperature;BME280_humidity;BME280_pressure;Samples;Min_cycle;Max_cycle;Signal;HPM_P1;HPM_P2
2023/10/01 00:00:12;;;;;;;8.30;3.53;;;;;;;13.65;57.07;93868.88;528181;28;1016;-41
2023/10/01 00:00:28;;;;;;;4.65;3.38;;;;;;;13.66;56.93;93873.13;526754;28;1761;-41
2023/10/01 00:00:43;;;;;;;4.45;3.22;;;;;;;13.66;56.87;93875.88;526784;28;1109;-41
2023/10/01 00:01:00;;;;;;;4.37;3.20;;;;;;;13.66;56.97;93870.34;528186;28;989;-41
2023/10/01 00:01:16;;;;;;;3.72;3.25;;;;;;;13.66;57.00;93873.13;528000;28;1709;-41
2023/10/01 00:01:31;;;;;;;3.28;2.95;;;;;;;13.67;56.87;93871.81;528212;28;881;-41
2023/10/01 00:01:48;;;;;;;4.22;2.90;;;;;;;13.67;56.95;93873.88;528095;28;1095;-41
2023/10/01 00:02:03;;;;;;;5.32;3.00;;;;;;;13.67;56.94;93869.06;528080;28;963;-41
2023/10/01 00:02:18;;;;;;;4.50;2.90;;;;;;;13.68;56.68;93878.88;527982;28;1076;-41
2023/10/01 00:02:34;;;;;;;3.88;2.60;;;;;;;13.68;56.59;93872.56;528156;28;817;-41
2023/10/01 00:02:51;;;;;;;3.97;2.63;;;;;;;13.68;56.50;93870.53;528253;28;881;-41
2023/10/01 00:03:06;;;;;;;3.30;2.72;;;;;;;13.68;56.34;93870.53;528174;28;861;-41
2023/10/01 00:03:22;;;;;;;3.42;2.78;;;;;;;13.68;56.52;93872.56;528010;28;826;-41
2023/10/01 00:03:38;;;;;;;3.20;2.90;;;;;;;13.69;56.43;93869.22;527973;28;967;-41
2023/10/01 00:03:55;;;;;;;2.80;2.60;;;;;;;13.70;56.48;93875.53;527895;28;1286;-41
2023/10/01 00:04:11;;;;;;;3.40;2.75;;;;;;;13.68;56.35;93865.00;525926;28;1132;-41
2023/10/01 00:04:27;;;;;;;3.67;2.83;;;;;;;13.69;56.43;93869.22;526546;28;865;-41
2023/10/01 00:04:42;;;;;;;3.80;2.70;;;;;;;13.68;56.30;93867.03;525950;28;868;-41
2023/10/01 00:04:59;;;;;;;5.20;2.72;;;;;;;13.68;56.38;93873.31;527541;28;864;-41
2023/10/01 00:05:14;;;;;;;5.60;2.90;;;;;;;13.68;56.52;93872.56;528074;28;943;-41
2023/10/01 00:05:30;;;;;;;5.28;2.92;;;;;;;13.67;56.34;93871.09;528180;28;1294;-41
2023/10/01 00:05:45;;;;;;;4.67;3.00;;;;;;;13.67;56.44;93871.81;528189;28;817;-41
2023/10/01 00:06:01;;;;;;;7.63;3.77;;;;;;;13.68;56.51;93867.03;528101;28;1106;-41
2023/10/01 00:06:16;;;;;;;13.40;4.43;;;;;;;13.66;56.35;93867.56;527052;28;1450;-41
2023/10/01 00:06:32;;;;;;;11.20;4.07;;;;;;;13.66;56.25;93869.63;526035;28;871;-42
2023/10/01 00:06:47;;;;;;;11.02;3.60;;;;;;;13.66;56.46;93872.41;527943;28;1310;-41
2023/10/01 00:07:03;;;;;;;8.73;3.17;;;;;;;13.66;56.35;93869.63;527746;28;1854;-41
2023/10/01 00:07:18;;;;;;;4.95;3.05;;;;;;;13.66;56.23;93872.41;527711;28;929;-41
2023/10/01 00:07:37;;;;;;;6.90;3.23;;;;;;;13.65;56.45;93865.34;528162;28;939;-41
2023/10/01 00:07:52;;;;;;;10.82;3.50;;;;;;;13.65;56.50;93870.91;527996;28;1047;-41
2023/10/01 00:08:14;;;;;;;6.40;3.13;;;;;;;13.64;56.44;93870.16;528230;28;844;-41
2023/10/01 00:08:29;;;;;;;3.55;3.08;;;;;;;13.63;56.40;93874.25;526033;28;852;-41
2023/10/01 00:08:45;;;;;;;4.70;3.23;;;;;;;13.61;56.65;93868.53;526052;28;904;-41
2023/10/01 00:09:06;;;;;;;4.70;2.78;;;;;;;13.61;56.57;93873.31;527268;28;931;-41
2023/10/01 00:09:22;;;;;;;4.32;2.60;;;;;;;13.59;56.67;93875.91;528072;28;1235;-41
2023/10/01 00:09:38;;;;;;;4.47;2.80;;;;;;;13.57;56.62;93872.97;528159;28;916;-41
2023/10/01 00:09:53;;;;;;;3.42;2.90;;;;;;;13.55;56.68;93867.25;528073;28;924;-41
2023/10/01 00:10:10;;;;;;;3.40;3.10;;;;;;;13.46;56.77;93862.25;528120;28;1580;-41
2023/10/01 00:10:26;;;;;;;3.67;3.15;;;;;;;13.41;56.90;93872.25;528075;28;905;-41
2023/10/01 00:10:41;;;;;;;3.78;3.03;;;;;;;13.38;57.30;93869.88;528095;28;1151;-41
2023/10/01 00:10:57;;;;;;;3.37;3.00;;;;;;;13.36;57.39;93870.41;528132;28;852;-41
2023/10/01 00:11:12;;;;;;;4.22;3.10;;;;;;;13.32;57.30;93864.50;527932;27;1732;-42
2023/10/01 00:11:28;;;;;;;4.03;2.93;;;;;;;13.25;57.38;93865.25;528109;28;896;-42
2023/10/01 00:11:43;;;;;;;3.05;2.65;;;;;;;13.22;57.55;93866.38;528165;28;993;-42
2023/10/01 00:11:59;;;;;;;4.03;2.67;;;;;;;13.19;57.73;93869.53;527683;28;1487;-41
2023/10/01 00:12:14;;;;;;;5.70;2.97;;;;;;;13.17;57.72;93864.50;528050;28;1144;-41
2023/10/01 00:12:29;;;;;;;4.10;3.10;;;;;;;13.19;57.66;93861.91;528182;28;871;-41
2023/10/01 00:12:47;;;;;;;3.27;2.97;;;;;;;13.21;57.74;93864.16;528112;28;955;-42
2023/10/01 00:13:03;;;;;;;3.63;2.85;;;;;;;13.23;57.55;93867.81;527999;28;1711;-42
2023/10/01 00:13:20;;;;;;;3.53;2.90;;;;;;;13.25;57.50;93872.84;527258;28;1010;-41
2023/10/01 00:13:35;;;;;;;3.53;2.97;;;;;;;13.26;57.56;93869.50;525967;28;952;-41
2023/10/01 00:13:51;;;;;;;3.53;2.90;;;;;;;13.30;57.46;93871.88;527693;28;1708;-41
2023/10/01 00:14:09;;;;;;;2.60;2.40;;;;;;;13.30;57.40;93871.88;527811;28;1922;-41
2023/10/01 00:14:25;;;;;;;2.90;2.60;;;;;;;13.32;57.41;93872.81;527887;28;865;-41
2023/10/01 00:14:40;;;;;;;3.33;3.03;;;;;;;13.32;57.36;93867.25;526955;28;853;-42
2023/10/01 00:14:56;;;;;;;3.35;3.00;;;;;;;13.29;57.47;93865.63;526577;28;845;-41
2023/10/01 00:15:13;;;;;;;3.90;3.00;;;;;;;13.32;57.45;93866.56;527666;28;1421;-42
2023/10/01 00:15:30;;;;;;;4.65;3.10;;;;;;;13.32;57.28;93864.50;525930;28;876;-42
2023/10/01 00:15:46;;;;;;;4.95;2.80;;;;;;;13.33;57.29;93865.97;526786;28;1448;-41
2023/10/01 00:16:02;;;;;;;3.65;2.75;;;;;;;13.35;57.22;93862.66;527527;28;904;-41
2023/10/01 00:16:17;;;;;;;4.00;2.97;;;;;;;13.35;57.25;93860.63;528050;28;896;-41
2023/10/01 00:16:33;;;;;;;4.47;3.03;;;;;;;13.36;57.08;93858.59;527902;28;880;-42
2023/10/01 00:16:51;;;;;;;5.37;3.10;;;;;;;13.36;57.22;93862.09;527952;28;1108;-42
2023/10/01 00:17:06;;;;;;;4.00;3.00;;;;;;;13.35;57.08;93866.16;528069;28;876;-42
2023/10/01 00:17:22;;;;;;;3.63;3.03;;;;;;;13.33;57.12;93865.25;528228;28;806;-41
2023/10/01 00:17:39;;;;;;;4.00;3.33;;;;;;;13.35;57.32;93863.38;528035;28;852;-42
2023/10/01 00:17:55;;;;;;;3.92;3.33;;;;;;;13.34;57.33;93869.50;527554;28;1139;-41
2023/10/01 00:18:11;;;;;;;5.00;3.13;;;;;;;13.35;57.23;93868.19;526265;28;1129;-41
2023/10/01 00:18:26;;;;;;;7.70;3.23;;;;;;;13.35;57.32;93866.16;528113;28;825;-41
2023/10/01 00:18:42;;;;;;;6.90;3.47;;;;;;;13.35;57.49;93868.94;528048;28;841;-41
2023/10/01 00:18:59;;;;;;;3.97;3.40;;;;;;;13.37;57.78;93873.91;528057;28;927;-42
2023/10/01 00:19:16;;;;;;;3.65;3.03;;;;;;;13.37;57.76;93860.78;527649;28;1436;-41
2023/10/01 00:19:32;;;;;;;3.55;3.20;;;;;;;13.39;57.56;93868.56;528127;28;951;-42
2023/10/01 00:19:48;;;;;;;3.15;2.88;;;;;;;13.40;57.62;93870.78;528050;28;1413;-42
2023/10/01 00:20:14;;;;;;;3.07;2.77;;;;;;;13.41;57.36;93869.47;527225;28;1198;-41
2023/10/01 00:20:30;;;;;;;4.05;3.20;;;;;;;13.42;57.39;93870.22;527800;28;1449;-41
2023/10/01 00:20:46;;;;;;;6.30;3.22;;;;;;;13.42;57.35;93861.91;526087;28;889;-42
2023/10/01 00:21:02;;;;;;;7.88;3.03;;;;;;;13.42;57.40;93862.66;526399;28;1608;-41
2023/10/01 00:21:18;;;;;;;4.88;2.92;;;;;;;13.43;57.34;93863.38;527225;28;931;-41
2023/10/01 00:21:33;;;;;;;4.15;2.88;;;;;;;13.43;57.47;93863.38;525936;28;924;-42
2023/10/01 00:21:49;;;;;;;4.23;2.77;;;;;;;13.43;57.22;93860.59;526094;28;980;-42
2023/10/01 00:22:04;;;;;;;4.13;2.90;;;;;;;13.43;57.34;93861.34;527845;28;1078;-42
2023/10/01 00:22:19;;;;;;;4.00;2.80;;;;;;;13.43;57.25;93864.09;526272;28;904;-42
2023/10/01 00:22:37;;;;;;;3.47;2.80;;;;;;;13.44;57.17;93862.81;525965;28;953;-42
2023/10/01 00:22:57;;;;;;;3.67;3.00;;;;;;;13.32;57.25;93847.13;526955;28;1255;-42
2023/10/01 00:23:12;;;;;;;3.63;3.05;;;;;;;13.43;57.01;93864.09;526019;28;905;-42
2023/10/01 00:23:28;;;;;;;4.30;2.78;;;;;;;13.43;56.95;93866.13;526273;28;848;-42
2023/10/01 00:23:43;;;;;;;4.40;2.70;;;;;;;13.43;57.14;93857.81;528172;28;774;-42
2023/10/01 00:23:59;;;;;;;4.63;3.10;;;;;;;13.34;56.97;93848.03;527754;28;948;-42
2023/10/01 00:24:15;;;;;;;4.88;3.00;;;;;;;13.41;56.97;93861.16;527976;28;970;-42
2023/10/01 00:24:30;;;;;;;4.03;2.57;;;;;;;13.44;56.79;93867.63;527223;28;829;-41
2023/10/01 00:24:46;;;;;;;3.30;2.42;;;;;;;13.42;56.77;93865.41;527825;28;897;-42
2023/10/01 00:25:01;;;;;;;4.50;2.70;;;;;;;13.42;56.58;93862.66;528035;28;891;-42
2023/10/01 00:25:18;;;;;;;5.47;2.80;;;;;;;13.41;56.39;93865.97;528246;28;930;-41
2023/10/01 00:25:37;;;;;;;3.47;2.50;;;;;;;13.39;56.50;93858.19;528114;28;865;-42
2023/10/01 00:25:52;;;;;;;3.38;2.40;;;;;;;13.38;56.65;93859.50;528029;28;1034;-42
2023/10/01 00:26:08;;;;;;;4.25;2.53;;;;;;;13.37;56.65;93855.25;528150;28;876;-42
2023/10/01 00:26:25;;;;;;;4.00;2.53;;;;;;;13.36;56.43;93856.53;527699;28;1203;-41
2023/10/01 00:26:42;;;;;;;3.70;2.53;;;;;;;13.34;56.58;93853.59;527795;28;2516;-41
2023/10/01 00:26:57;;;;;;;2.80;2.50;;;;;;;13.32;56.56;93856.19;527606;28;893;-42
2023/10/01 00:27:14;;;;;;;3.97;2.53;;;;;;;13.29;56.75;93857.31;527838;28;1223;-42
2023/10/01 00:27:30;;;;;;;4.32;2.88;;;;;;;13.28;57.01;93863.38;528119;28;876;-41
2023/10/01 00:27:45;;;;;;;2.92;2.58;;;;;;;13.26;57.03;93852.13;527789;28;1437;-42
2023/10/01 00:28:04;;;;;;;2.75;2.42;;;;;;;13.09;57.20;93838.09;527826;28;1551;-41
2023/10/01 00:28:19;;;;;;;3.65;2.70;;;;;;;13.21;57.36;93853.06;527804;28;1125;-41
2023/10/01 00:28:34;;;;;;;3.60;2.90;;;;;;;13.21;57.57;93853.78;527947;28;1498;-41
2023/10/01 00:28:51;;;;;;;4.35;3.22;;;;;;;13.21;57.43;93859.31;526737;28;1129;-41
2023/10/01 00:29:06;;;;;;;4.57;3.22;;;;;;;13.20;57.56;93860.63;526413;28;951;-41
2023/10/01 00:29:22;;;;;;;3.10;2.67;;;;;;;13.21;57.61;93864.16;526199;28;798;-41
2023/10/01 00:29:37;;;;;;;3.03;2.72;;;;;;;13.20;57.75;93857.88;525995;28;845;-41
2023/10/01 00:29:53;;;;;;;3.37;3.03;;;;;;;13.21;57.59;93861.38;527272;28;1535;-41
2023/10/01 00:30:10;;;;;;;3.83;2.83;;;;;;;13.22;57.67;93857.31;527916;28;975;-41
2023/10/01 00:30:26;;;;;;;4.93;2.92;;;;;;;13.22;57.44;93866.38;528002;28;1050;-41
2023/10/01 00:30:41;;;;;;;4.55;2.60;;;;;;;13.22;57.63;93865.63;528181;28;1086;-41
2023/10/01 00:30:57;;;;;;;4.90;2.53;;;;;;;13.21;57.63;93861.38;527729;28;930;-41
2023/10/01 00:31:13;;;;;;;6.90;2.90;;;;;;;13.20;57.75;93862.66;528158;28;860;-41
2023/10/01 00:31:29;;;;;;;6.90;2.88;;;;;;;13.17;57.83;93861.75;528257;28;900;-41
2023/10/01 00:31:45;;;;;;;4.70;2.65;;;;;;;13.18;57.71;93857.69;528008;28;1207;-41
2023/10/01 00:32:01;;;;;;;4.07;2.80;;;;;;;13.18;57.74;93854.91;527987;28;932;-41
2023/10/01 00:32:16;;;;;;;3.00;2.70;;;;;;;13.18;57.62;93854.91;528199;28;860;-41
2023/10/01 00:32:32;;;;;;;2.90;2.70;;;;;;;13.18;57.59;93857.69;528156;28;1537;-41
2023/10/01 00:32:47;;;;;;;3.20;2.90;;;;;;;13.20;57.56;93857.13;528218;28;880;-41
2023/10/01 00:33:11;;;;;;;3.00;2.70;;;;;;;13.19;57.55;93853.59;526659;28;844;-42
2023/10/01 00:33:26;;;;;;;3.42;2.78;;;;;;;13.19;57.66;93850.81;527698;28;828;-41
2023/10/01 00:33:41;;;;;;;3.27;2.87;;;;;;;13.14;57.53;93859.34;526238;28;808;-41
2023/10/01 00:33:57;;;;;;;3.07;2.77;;;;;;;13.12;57.57;93854.38;527395;28;1255;-41
2023/10/01 00:34:12;;;;;;;3.80;3.13;;;;;;;13.13;57.60;93853.06;526012;28;1937;-42
2023/10/01 00:34:28;;;;;;;4.43;3.33;;;;;;;13.13;57.74;93850.28;526058;28;785;-41
2023/10/01 00:34:43;;;;;;;7.93;3.55;;;;;;;13.13;57.47;93850.28;526411;28;1139;-41
2023/10/01 00:34:59;;;;;;;8.83;4.30;;;;;;;13.13;57.59;93858.59;528261;28;857;-42
2023/10/01 00:35:14;;;;;;;7.53;5.55;;;;;;;13.13;57.62;93850.28;528199;28;840;-42
2023/10/01 00:35:29;;;;;;;7.80;5.97;;;;;;;13.12;57.55;93857.13;528145;28;950;-42
2023/10/01 00:35:45;;;;;;;7.03;5.13;;;;;;;13.12;57.52;93861.94;528078;28;860;-42
2023/10/01 00:36:01;;;;;;;7.90;4.80;;;;;;;13.11;57.64;93852.13;527188;28;888;-42
2023/10/01 00:36:17;;;;;;;10.43;5.18;;;;;;;13.10;57.66;93851.41;526803;28;1113;-41
2023/10/01 00:36:32;;;;;;;9.57;5.18;;;;;;;13.10;57.66;93856.22;526269;28;971;-41
2023/10/01 00:36:49;;;;;;;6.63;5.20;;;;;;;13.10;57.64;93847.91;526154;28;950;-41
2023/10/01 00:37:04;;;;;;;6.07;4.93;;;;;;;13.10;57.91;93859.72;526465;28;832;-41
2023/10/01 00:37:20;;;;;;;5.78;4.50;;;;;;;13.09;57.76;93852.69;526067;28;865;-41
2023/10/01 00:37:35;;;;;;;8.00;4.40;;;;;;;13.10;57.81;93851.41;526016;28;876;-41
2023/10/01 00:37:51;;;;;;;8.00;4.30;;;;;;;13.08;57.99;93850.50;527513;28;1144;-41
2023/10/01 00:38:07;;;;;;;8.37;4.10;;;;;;;13.06;57.74;93853.78;526876;28;1205;-41
2023/10/01 00:38:22;;;;;;;8.55;4.15;;;;;;;13.05;57.98;93852.34;527639;28;1185;-41
2023/10/01 00:38:38;;;;;;;7.03;4.30;;;;;;;13.05;58.06;93851.59;526397;28;1223;-41
2023/10/01 00:38:53;;;;;;;8.40;4.70;;;;;;;13.05;58.12;93851.59;526248;28;1240;-41
2023/10/01 00:39:09;;;;;;;7.80;4.80;;;;;;;13.04;58.03;93850.09;527420;28;1283;-41
2023/10/01 00:39:24;;;;;;;6.60;5.00;;;;;;;13.05;57.91;93849.56;527767;28;1488;-41
2023/10/01 00:39:39;;;;;;;8.47;4.67;;;;;;;13.04;58.23;93850.81;526618;28;1264;-41
2023/10/01 00:39:57;;;;;;;9.02;4.75;;;;;;;13.06;58.22;93851.03;526894;28;1259;-41
2023/10/01 00:40:13;;;;;;;9.55;5.43;;;;;;;13.07;58.25;93846.97;526077;28;911;-41
2023/10/01 00:40:29;;;;;;;8.88;5.93;;;;;;;13.04;58.13;93850.09;525999;28;1996;-41
2023/10/01 00:40:44;;;;;;;10.40;7.07;;;;;;;13.05;58.04;93848.81;526464;28;1144;-41
2023/10/01 00:40:59;;;;;;;11.73;7.28;;;;;;;13.10;58.00;93856.22;527255;28;1221;-41
2023/10/01 00:41:15;;;;;;;13.43;8.07;;;;;;;13.11;58.27;93854.91;526239;28;1204;-41
2023/10/01 00:41:30;;;;;;;13.23;8.50;;;;;;;13.12;58.08;93851.59;528047;28;879;-41
2023/10/01 00:41:46;;;;;;;13.32;8.23;;;;;;;13.13;58.00;93852.31;527270;28;1212;-41
2023/10/01 00:42:06;;;;;;;14.07;8.27;;;;;;;13.14;58.02;93849.00;527188;28;1727;-41
2023/10/01 00:42:21;;;;;;;11.00;7.78;;;;;;;13.14;57.89;93853.81;527719;28;1098;-41
2023/10/01 00:42:37;;;;;;;9.13;7.13;;;;;;;13.18;58.06;93852.13;527472;28;1367;-41
2023/10/01 00:42:53;;;;;;;9.45;6.82;;;;;;;13.14;57.99;93846.22;523854;28;1451;-41
2023/10/01 00:43:09;;;;;;;8.97;6.73;;;;;;;13.20;57.87;93846.78;526217;28;1133;-41
2023/10/01 00:43:25;;;;;;;10.15;6.50;;;;;;;13.22;57.83;93848.97;525744;28;1309;-41
2023/10/01 00:43:41;;;;;;;10.82;6.35;;;;;;;13.22;57.76;93846.94;525903;28;1523;-41
2023/10/01 00:44:00;;;;;;;9.60;6.80;;;;;;;13.22;57.75;93849.72;527080;28;857;-41
2023/10/01 00:44:17;;;;;;;10.35;6.85;;;;;;;13.23;57.76;93844.94;526266;28;1252;-41
2023/10/01 00:44:36;;;;;;;10.45;6.72;;;;;;;13.23;57.58;93842.88;527820;28;1205;-41
2023/10/01 00:44:53;;;;;;;11.98;6.75;;;;;;;13.25;57.63;93848.63;528029;28;1208;-42
2023/10/01 00:45:11;;;;;;;12.48;6.82;;;;;;;13.25;57.63;93843.06;527984;28;896;-41
2023/10/01 00:45:27;;;;;;;10.27;6.33;;;;;;;13.26;57.63;93844.53;528200;28;918;-42
2023/10/01 00:45:42;;;;;;;10.27;6.07;;;;;;;13.25;57.74;93839.56;528208;28;781;-41
2023/10/01 00:45:59;;;;;;;8.32;6.40;;;;;;;13.26;57.93;93847.31;527127;28;1138;-41
2023/10/01 00:46:14;;;;;;;8.60;6.50;;;;;;;13.26;57.73;93846.56;526065;28;1706;-41
2023/10/01 00:46:31;;;;;;;9.00;6.13;;;;;;;13.27;57.63;93845.28;527024;28;1120;-41
2023/10/01 00:46:48;;;;;;;8.93;5.82;;;;;;;13.27;57.57;93839.75;527893;28;1697;-41
2023/10/01 00:47:03;;;;;;;7.15;5.63;;;;;;;13.28;57.55;93841.94;528098;28;899;-41
2023/10/01 00:47:21;;;;;;;7.60;5.73;;;;;;;13.28;57.48;93846.75;528085;28;1280;-41
2023/10/01 00:47:40;;;;;;;11.48;6.45;;;;;;;13.18;57.55;93832.72;527424;28;1303;-41
2023/10/01 00:47:58;;;;;;;10.60;6.47;;;;;;;13.29;57.38;93837.16;527219;28;1121;-41
2023/10/01 00:48:13;;;;;;;10.35;6.22;;;;;;;13.28;57.49;93841.19;527500;28;1119;-41
2023/10/01 00:48:29;;;;;;;8.87;6.37;;;;;;;13.28;57.48;93841.19;528094;28;801;-42
2023/10/01 00:48:46;;;;;;;8.60;6.50;;;;;;;13.11;57.74;93811.28;528098;28;801;-41
2023/10/01 00:49:01;;;;;;;9.38;6.50;;;;;;;13.29;57.72;93839.91;527679;28;935;-41
2023/10/01 00:49:17;;;;;;;9.37;6.67;;;;;;;13.15;57.34;93816.44;526689;28;1196;-41
2023/10/01 00:49:39;;;;;;;10.40;7.50;;;;;;;13.31;57.32;93842.88;526557;28;1753;-41
2023/10/01 00:49:57;;;;;;;11.88;7.70;;;;;;;13.31;57.26;93842.88;524395;28;886;-41
2023/10/01 00:50:18;;;;;;;9.27;6.78;;;;;;;13.31;57.27;93837.31;521868;28;1256;-41
2023/10/01 00:50:34;;;;;;;7.63;6.05;;;;;;;13.25;57.39;93834.00;519513;28;1006;-42
2023/10/01 00:50:52;;;;;;;8.48;6.10;;;;;;;13.31;57.41;93840.84;519786;28;1198;-42
2023/10/01 00:51:07;;;;;;;8.68;6.32;;;;;;;13.31;57.13;93843.63;520266;28;1051;-41
2023/10/01 00:51:23;;;;;;;8.13;6.73;;;;;;;13.32;57.30;93836.75;522318;28;1037;-41
2023/10/01 00:51:38;;;;;;;9.27;7.30;;;;;;;13.33;57.43;93840.28;522384;28;1279;-41
2023/10/01 00:51:53;;;;;;;9.23;7.10;;;;;;;13.33;57.34;93841.03;523443;28;889;-41
2023/10/01 00:52:10;;;;;;;9.93;7.37;;;;;;;13.33;57.14;93843.81;523194;28;1110;-41
2023/10/01 00:52:25;;;;;;;11.15;7.60;;;;;;;13.33;57.40;93834.72;524422;28;1263;-42
2023/10/01 00:52:41;;;;;;;10.57;7.07;;;;;;;13.33;57.23;93843.81;525726;28;1299;-42
2023/10/01 00:52:58;;;;;;;11.07;7.05;;;;;;;13.33;57.36;93843.06;523225;28;1228;-42
2023/10/01 00:53:13;;;;;;;12.07;7.30;;;;;;;13.31;57.26;93837.31;522082;28;1292;-42
2023/10/01 00:53:28;;;;;;;12.57;6.93;;;;;;;13.30;57.11;93835.84;522351;28;1245;-42
2023/10/01 00:53:45;;;;;;;12.57;7.00;;;;;;;13.32;57.00;93842.31;524318;28;802;-42
2023/10/01 00:54:02;;;;;;;9.18;6.40;;;;;;;13.33;57.15;93835.47;526484;28;1172;-42
2023/10/01 00:54:19;;;;;;;9.00;6.00;;;;;;;13.32;56.90;93839.53;526511;28;1151;-42
2023/10/01 00:54:34;;;;;;;9.18;5.75;;;;;;;13.30;56.93;93833.81;527699;28;1243;-42
2023/10/01 00:54:54;;;;;;;7.47;5.22;;;;;;;13.31;56.90;93840.09;526243;28;1236;-42
2023/10/01 00:55:11;;;;;;;5.22;4.72;;;;;;;13.32;56.77;93847.13;527286;28;1062;-41
2023/10/01 00:55:26;;;;;;;4.55;4.10;;;;;;;13.30;56.84;93833.06;526042;28;1668;-42
2023/10/01 00:55:42;;;;;;;4.32;3.78;;;;;;;13.18;56.86;93815.34;528134;28;836;-42
2023/10/01 00:55:59;;;;;;;4.70;4.13;;;;;;;13.28;56.76;93833.63;527388;28;1193;-42
2023/10/01 00:56:15;;;;;;;6.07;4.82;;;;;;;13.28;56.96;93841.94;528057;28;1652;-42
2023/10/01 00:56:31;;;;;;;7.25;5.15;;;;;;;13.26;57.01;93832.72;527184;28;1195;-42
2023/10/01 00:56:46;;;;;;;6.28;4.43;;;;;;;13.25;57.32;93834.00;527007;28;1185;-42
2023/10/01 00:57:02;;;;;;;5.17;4.27;;;;;;;13.23;57.10;93840.09;526648;28;1212;-42
2023/10/01 00:57:17;;;;;;;5.53;4.68;;;;;;;13.22;57.20;93837.88;527790;28;943;-41
2023/10/01 00:57:35;;;;;;;6.80;4.53;;;;;;;13.21;57.08;93839.19;527785;28;785;-42
2023/10/01 00:57:56;;;;;;;6.13;4.50;;;;;;;13.22;57.19;93844.19;526491;28;1757;-42
2023/10/01 00:58:11;;;;;;;6.35;4.95;;;;;;;13.22;57.42;93840.66;523663;28;940;-42
2023/10/01 00:58:27;;;;;;;6.37;4.60;;;;;;;13.22;57.31;93841.41;525057;28;1273;-42
2023/10/01 00:58:43;;;;;;;6.43;4.57;;;;;;;13.22;57.33;93838.63;525730;28;825;-42
2023/10/01 00:58:58;;;;;;;6.18;4.38;;;;;;;13.23;57.66;93840.09;527184;28;998;-42
2023/10/01 00:59:14;;;;;;;5.72;4.05;;;;;;;13.23;57.32;93845.66;525785;28;885;-42
2023/10/01 00:59:32;;;;;;;6.77;4.10;;;;;;;13.23;57.50;93840.09;527765;28;1085;-42
2023/10/01 00:59:50;;;;;;;8.32;4.35;;;;;;;13.24;57.48;93843.63;527689;28;1247;-42
2023/10/01 01:00:13;;;;;;;7.45;4.22;;;;;;;13.23;57.08;93842.16;526369;28;883;-42
2023/10/01 01:00:28;;;;;;;5.75;4.30;;;;;;;13.25;57.33;93836.78;526933;28;1105;-42
2023/10/01 01:00:45;;;;;;;7.28;4.38;;;;;;;13.24;57.08;93835.28;527758;28;929;-42
2023/10/01 01:01:04;;;;;;;7.38;4.18;;;;;;;13.22;57.34;93835.13;524672;28;1561;-42
2023/10/01 01:01:23;;;;;;;5.85;4.38;;;;;;;13.23;57.27;93831.06;523836;28;880;-42
2023/10/01 01:01:41;;;;;;;5.60;4.20;;;;;;;13.26;57.51;93843.78;525806;28;876;-42
2023/10/01 01:01:57;;;;;;;5.28;4.10;;;;;;;13.24;57.35;93836.03;524963;28;1244;-42
2023/10/01 01:02:15;;;;;;;6.22;4.32;;;;;;;13.13;57.30;93825.34;524181;28;845;-42
2023/10/01 01:02:37;;;;;;;6.07;4.35;;;;;;;13.26;57.58;93843.78;525119;28;1318;-42
2023/10/01 01:03:22;;;;;;;6.32;3.80;;;;;;;13.25;57.18;93837.53;523302;28;1223;-42
2023/10/01 01:03:37;;;;;;;6.13;3.80;;;;;;;13.24;57.23;93830.50;521655;28;921;-42
2023/10/01 01:03:55;;;;;;;6.00;3.97;;;;;;;13.24;57.21;93847.13;521758;28;809;-42
2023/10/01 01:04:17;;;;;;;6.10;3.50;;;;;;;13.23;57.23;93831.78;523058;28;1327;-42
2023/10/01 01:04:36;;;;;;;5.40;3.28;;;;;;;13.24;57.26;93843.63;523627;28;1012;-42
2023/10/01 01:05:19;;;;;;;3.97;3.42;;;;;;;13.23;56.99;93840.09;525764;28;955;-43
2023/10/01 01:05:37;;;;;;;4.25;3.33;;;;;;;13.23;56.99;93837.31;527891;28;948;-42
2023/10/01 01:06:23;;;;;;;4.32;3.40;;;;;;;13.23;57.08;93831.06;527216;28;1405;-42
2023/10/01 01:06:39;;;;;;;4.43;3.35;;;;;;;13.22;56.99;93833.09;528103;28;888;-42
2023/10/01 01:07:00;;;;;;;4.13;3.25;;;;;;;13.21;57.28;93833.66;527705;28;801;-42
2023/10/01 01:07:19;;;;;;;3.88;3.30;;;;;;;13.21;57.13;93836.44;526019;28;884;-42
2023/10/01 01:07:36;;;;;;;4.78;3.70;;;;;;;13.20;57.07;93832.91;527493;28;1412;-42
2023/10/01 01:07:52;;;;;;;4.75;3.70;;;;;;;13.21;57.33;93839.19;527990;28;1417;-42
2023/10/01 01:08:09;;;;;;;5.30;3.08;;;;;;;13.19;56.99;93834.19;527747;28;1345;-42
2023/10/01 01:08:33;;;;;;;6.47;3.00;;;;;;;13.18;56.87;93829.97;528032;28;1618;-42
2023/10/01 01:08:52;;;;;;;3.15;2.83;;;;;;;13.16;56.70;93835.31;527477;28;892;-42
2023/10/01 01:09:11;;;;;;;3.00;2.70;;;;;;;13.14;56.77;93832.38;527875;28;1072;-42
2023/10/01 01:09:29;;;;;;;3.42;3.10;;;;;;;13.13;56.76;93827.38;528048;28;1354;-42
2023/10/01 01:09:45;;;;;;;3.30;3.00;;;;;;;13.12;57.00;93837.72;527919;28;875;-42
2023/10/01 01:10:01;;;;;;;4.68;3.10;;;;;;;13.11;56.74;93827.94;527536;28;1102;-43
2023/10/01 01:10:18;;;;;;;5.10;3.20;;;;;;;13.09;57.09;93833.28;527685;28;1432;-43
2023/10/01 01:10:41;;;;;;;4.25;2.70;;;;;;;13.04;56.74;93823.09;526859;28;1343;-42
2023/10/01 01:10:57;;;;;;;6.00;2.67;;;;;;;13.08;56.80;93834.56;525681;28;1437;-42
2023/10/01 01:11:15;;;;;;;4.88;2.78;;;;;;;13.07;56.82;93830.34;525804;28;892;-42
2023/10/01 01:11:31;;;;;;;3.70;3.00;;;;;;;13.05;57.22;93829.41;526033;28;849;-42
2023/10/01 01:11:47;;;;;;;3.87;3.07;;;;;;;13.03;56.99;93838.25;527946;28;817;-42
2023/10/01 01:12:04;;;;;;;2.78;2.50;;;;;;;13.03;57.26;93829.19;527560;28;833;-42
2023/10/01 01:12:21;;;;;;;2.67;2.47;;;;;;;13.02;57.26;93830.47;526577;28;1302;-42
2023/10/01 01:12:38;;;;;;;2.95;2.60;;;;;;;13.02;57.12;93830.47;527886;28;1023;-42
2023/10/01 01:12:54;;;;;;;3.15;2.85;;;;;;;13.01;57.05;93829.75;527824;28;841;-43
2023/10/01 01:13:16;;;;;;;3.17;2.78;;;;;;;13.00;57.17;93838.63;527020;28;900;-42
2023/10/01 01:13:33;;;;;;;3.17;2.47;;;;;;;12.98;57.15;93828.09;527909;28;978;-42
2023/10/01 01:13:51;;;;;;;4.35;2.58;;;;;;;12.97;57.25;93834.94;527608;28;1028;-42
2023/10/01 01:14:07;;;;;;;5.35;3.10;;;;;;;12.97;57.34;93831.44;527623;28;1985;-42
2023/10/01 01:14:22;;;;;;;4.70;3.30;;;;;;;12.96;57.37;93830.69;528044;28;908;-42
2023/10/01 01:14:38;;;;;;;4.20;2.83;;;;;;;12.94;57.40;93836.03;528126;28;836;-42
2023/10/01 01:14:54;;;;;;;3.05;2.70;;;;;;;12.94;57.45;93830.50;528096;28;806;-42
2023/10/01 01:15:12;;;;;;;3.08;2.65;;;;;;;12.92;57.56;93827.56;527271;28;1081;-42
2023/10/01 01:15:34;;;;;;;3.70;2.80;;;;;;;12.91;57.51;93823.28;528143;28;848;-42
2023/10/01 01:15:51;;;;;;;3.33;2.70;;;;;;;12.90;57.61;93830.13;528161;28;897;-43
2023/10/01 01:16:07;;;;;;;3.50;2.80;;;;;;;12.89;57.54;93834.19;528000;27;1329;-42
2023/10/01 01:16:25;;;;;;;3.33;2.78;;;;;;;12.60;57.30;93794.88;527870;28;946;-42
2023/10/01 01:16:41;;;;;;;2.70;2.50;;;;;;;12.86;57.48;93824.94;527890;28;1077;-42
2023/10/01 01:16:56;;;;;;;3.30;2.88;;;;;;;12.85;57.48;93828.28;527402;28;1102;-42
2023/10/01 01:17:12;;;;;;;3.90;3.20;;;;;;;12.84;57.75;93826.81;527992;28;841;-42
2023/10/01 01:17:27;;;;;;;3.78;3.13;;;;;;;12.82;57.49;93821.81;527913;28;888;-42
2023/10/01 01:17:43;;;;;;;3.87;2.83;;;;;;;12.75;57.63;93822.56;527887;28;849;-42
2023/10/01 01:18:00;;;;;;;3.65;2.78;;;;;;;12.80;57.67;93824.41;527683;28;1274;-42
2023/10/01 01:18:15;;;;;;;3.72;3.00;;;;;;;12.80;57.49;93826.44;527913;28;1195;-42
2023/10/01 01:18:36;;;;;;;3.33;3.03;;;;;;;12.79;57.67;93831.25;528042;28;891;-42
2023/10/01 01:18:52;;;;;;;5.00;2.97;;;;;;;12.77;58.02;93828.28;528133;28;943;-42
2023/10/01 01:19:09;;;;;;;5.38;2.67;;;;;;;12.76;57.96;93835.13;527731;28;881;-42
2023/10/01 01:19:24;;;;;;;3.20;2.70;;;;;;;12.74;57.85;93823.09;527891;28;1095;-42
2023/10/01 01:19:42;;;;;;;3.47;2.87;;;;;;;12.75;57.86;93830.13;527733;28;1495;-42
2023/10/01 01:19:57;;;;;;;3.30;2.90;;;;;;;12.57;57.91;93806.28;527498;28;1659;-42
2023/10/01 01:20:13;;;;;;;3.17;2.87;;;;;;;12.73;58.03;93832.72;526974;28;1009;-42
2023/10/01 01:20:36;;;;;;;3.35;2.92;;;;;;;12.73;58.02;93827.19;527869;28;801;-43
2023/10/01 01:20:58;;;;;;;5.22;3.03;;;;;;;12.73;58.14;93832.72;527935;28;1749;-43
2023/10/01 01:21:16;;;;;;;4.32;3.00;;;;;;;12.73;58.16;93838.25;527501;28;1749;-42
2023/10/01 01:21:31;;;;;;;3.53;2.70;;;;;;;12.71;58.08;93830.50;528043;28;908;-42
2023/10/01 01:21:47;;;;;;;3.72;2.95;;;;;;;12.72;58.13;93823.66;528093;28;1117;-42